sensor_id;sensor_type;location;lat;lon;timestamp;P1;durP1;ratioP1;P2;durP2;ratioP2
22754;SDS011;11544;42.020;23.094;2023-05-25T00:01:47;5.70;;;3.72;;
22754;SDS011;11544;42.020;23.094;2023-05-25T00:04:14;4.82;;;3.78;;
22754;SDS011;11544;42.020;23.094;2023-05-25T00:06:43;6.15;;;4.38;;
22754;SDS011;11544;42.020;23.094;2023-05-25T00:09:12;4.93;;;4.13;;
22754;SDS011;11544;42.020;23.094;2023-05-25T00:11:40;6.57;;;3.75;;
22754;SDS011;11544;42.020;23.094;2023-05-25T00:14:06;5.65;;;4.35;;
22754;SDS011;11544;42.020;23.094;2023-05-25T00:16:33;12.80;;;4.28;;
22754;SDS011;11544;42.020;23.094;2023-05-25T00:19:04;5.60;;;4.05;;
22754;SDS011;11544;42.020;23.094;2023-05-25T00:21:32;6.97;;;3.83;;
22754;SDS011;11544;42.020;23.094;2023-05-25T00:24:04;5.43;;;4.05;;
22754;SDS011;11544;42.020;23.094;2023-05-25T00:26:33;4.80;;;4.00;;
22754;SDS011;11544;42.020;23.094;2023-05-25T00:29:04;5.38;;;4.03;;
22754;SDS011;11544;42.020;23.094;2023-05-25T00:31:32;5.05;;;3.60;;
22754;SDS011;11544;42.020;23.094;2023-05-25T00:34:01;5.72;;;4.05;;
22754;SDS011;11544;42.020;23.094;2023-05-25T00:36:27;4.90;;;3.90;;
22754;SDS011;11544;42.020;23.094;2023-05-25T00:38:54;5.38;;;3.83;;
22754;SDS011;11544;42.020;23.094;2023-05-25T00:41:21;7.72;;;3.72;;
22754;SDS011;11544;42.020;23.094;2023-05-25T00:43:50;4.85;;;3.60;;
22754;SDS011;11544;42.020;23.094;2023-05-25T00:46:17;6.05;;;4.65;;
22754;SDS011;11544;42.020;23.094;2023-05-25T00:48:44;6.95;;;4.13;;
22754;SDS011;11544;42.020;23.094;2023-05-25T00:51:13;5.00;;;3.90;;
22754;SDS011;11544;42.020;23.094;2023-05-25T00:53:55;7.82;;;3.75;;
22754;SDS011;11544;42.020;23.094;2023-05-25T00:56:23;6.00;;;3.80;;
22754;SDS011;11544;42.020;23.094;2023-05-25T00:58:54;4.78;;;4.00;;
22754;SDS011;11544;42.020;23.094;2023-05-25T01:01:26;7.70;;;3.83;;
22754;SDS011;11544;42.020;23.094;2023-05-25T01:03:59;4.20;;;3.70;;
22754;SDS011;11544;42.020;23.094;2023-05-25T01:06:29;6.65;;;4.18;;
22754;SDS011;11544;42.020;23.094;2023-05-25T01:09:00;6.18;;;4.15;;
22754;SDS011;11544;42.020;23.094;2023-05-25T01:11:34;4.85;;;3.83;;
22754;SDS011;11544;42.020;23.094;2023-05-25T01:14:02;7.13;;;3.88;;
22754;SDS011;11544;42.020;23.094;2023-05-25T01:16:29;5.65;;;4.07;;
22754;SDS011;11544;42.020;23.094;2023-05-25T01:18:57;7.75;;;4.20;;
22754;SDS011;11544;42.020;23.094;2023-05-25T01:21:26;4.80;;;3.58;;
22754;SDS011;11544;42.020;23.094;2023-05-25T01:26:51;5.78;;;3.55;;
22754;SDS011;11544;42.020;23.094;2023-05-25T01:29:23;5.72;;;4.15;;
22754;SDS011;11544;42.020;23.094;2023-05-25T01:31:53;4.68;;;3.80;;
22754;SDS011;11544;42.020;23.094;2023-05-25T01:34:23;6.15;;;3.83;;
22754;SDS011;11544;42.020;23.094;2023-05-25T01:36:52;5.10;;;3.95;;
22754;SDS011;11544;42.020;23.094;2023-05-25T01:39:22;5.18;;;3.65;;
22754;SDS011;11544;42.020;23.094;2023-05-25T01:41:49;6.00;;;4.10;;
22754;SDS011;11544;42.020;23.094;2023-05-25T01:44:16;4.97;;;3.83;;
22754;SDS011;11544;42.020;23.094;2023-05-25T01:46:43;4.82;;;3.85;;
22754;SDS011;11544;42.020;23.094;2023-05-25T01:49:24;4.60;;;3.67;;
22754;SDS011;11544;42.020;23.094;2023-05-25T01:54:50;5.47;;;3.83;;
22754;SDS011;11544;42.020;23.094;2023-05-25T01:57:19;5.95;;;3.78;;
22754;SDS011;11544;42.020;23.094;2023-05-25T01:59:46;8.20;;;3.58;;
22754;SDS011;11544;42.020;23.094;2023-05-25T02:02:19;4.85;;;3.90;;
22754;SDS011;11544;42.020;23.094;2023-05-25T02:04:46;6.22;;;3.90;;
22754;SDS011;11544;42.020;23.094;2023-05-25T02:07:16;4.13;;;3.40;;
22754;SDS011;11544;42.020;23.094;2023-05-25T02:09:43;6.55;;;3.80;;
22754;SDS011;11544;42.020;23.094;2023-05-25T02:12:11;7.30;;;4.25;;
22754;SDS011;11544;42.020;23.094;2023-05-25T02:14:38;5.65;;;4.05;;
22754;SDS011;11544;42.020;23.094;2023-05-25T02:17:05;7.68;;;4.47;;
22754;SDS011;11544;42.020;23.094;2023-05-25T02:19:33;5.82;;;4.35;;
22754;SDS011;11544;42.020;23.094;2023-05-25T02:22:01;6.30;;;4.85;;
22754;SDS011;11544;42.020;23.094;2023-05-25T02:24:28;7.00;;;3.85;;
22754;SDS011;11544;42.020;23.094;2023-05-25T02:26:55;5.40;;;3.70;;
22754;SDS011;11544;42.020;23.094;2023-05-25T02:29:22;6.55;;;3.92;;
22754;SDS011;11544;42.020;23.094;2023-05-25T02:31:48;6.25;;;4.50;;
22754;SDS011;11544;42.020;23.094;2023-05-25T02:34:16;7.82;;;4.70;;
22754;SDS011;11544;42.020;23.094;2023-05-25T02:36:43;6.32;;;4.07;;
22754;SDS011;11544;42.020;23.094;2023-05-25T02:39:10;7.30;;;4.35;;
22754;SDS011;11544;42.020;23.094;2023-05-25T02:41:37;5.97;;;4.47;;
22754;SDS011;11544;42.020;23.094;2023-05-25T02:44:04;5.80;;;4.03;;
22754;SDS011;11544;42.020;23.094;2023-05-25T02:46:31;7.07;;;4.38;;
22754;SDS011;11544;42.020;23.094;2023-05-25T02:48:59;4.75;;;4.05;;
22754;SDS011;11544;42.020;23.094;2023-05-25T02:51:27;7.75;;;4.50;;
22754;SDS011;11544;42.020;23.094;2023-05-25T02:53:54;6.90;;;4.30;;
22754;SDS011;11544;42.020;23.094;2023-05-25T02:56:21;5.35;;;4.22;;
22754;SDS011;11544;42.020;23.094;2023-05-25T02:58:48;5.82;;;4.10;;
22754;SDS011;11544;42.020;23.094;2023-05-25T03:01:16;10.20;;;4.18;;
22754;SDS011;11544;42.020;23.094;2023-05-25T03:03:44;7.05;;;4.10;;
22754;SDS011;11544;42.020;23.094;2023-05-25T03:06:12;4.75;;;4.25;;
22754;SDS011;11544;42.020;23.094;2023-05-25T03:08:41;6.80;;;4.22;;
22754;SDS011;11544;42.020;23.094;2023-05-25T03:11:08;5.78;;;4.10;;
22754;SDS011;11544;42.020;23.094;2023-05-25T03:13:35;6.05;;;3.95;;
22754;SDS011;11544;42.020;23.094;2023-05-25T03:16:02;5.32;;;4.40;;
22754;SDS011;11544;42.020;23.094;2023-05-25T03:18:29;7.80;;;4.60;;
22754;SDS011;11544;42.020;23.094;2023-05-25T03:20:56;5.03;;;3.80;;
22754;SDS011;11544;42.020;23.094;2023-05-25T03:23:40;4.97;;;3.70;;
22754;SDS011;11544;42.020;23.094;2023-05-25T03:26:13;4.53;;;3.75;;
22754;SDS011;11544;42.020;23.094;2023-05-25T03:28:41;5.22;;;4.00;;
22754;SDS011;11544;42.020;23.094;2023-05-25T03:31:08;5.43;;;4.07;;
22754;SDS011;11544;42.020;23.094;2023-05-25T03:33:35;9.90;;;4.30;;
22754;SDS011;11544;42.020;23.094;2023-05-25T03:36:05;6.88;;;4.55;;
22754;SDS011;11544;42.020;23.094;2023-05-25T03:38:37;6.55;;;4.32;;
22754;SDS011;11544;42.020;23.094;2023-05-25T03:41:04;7.20;;;4.93;;
22754;SDS011;11544;42.020;23.094;2023-05-25T03:43:32;5.97;;;4.20;;
22754;SDS011;11544;42.020;23.094;2023-05-25T03:45:59;6.32;;;4.22;;
22754;SDS011;11544;42.020;23.094;2023-05-25T03:48:26;8.32;;;4.43;;
22754;SDS011;11544;42.020;23.094;2023-05-25T03:50:53;7.28;;;4.50;;
22754;SDS011;11544;42.020;23.094;2023-05-25T03:53:20;6.65;;;4.68;;
22754;SDS011;11544;42.020;23.094;2023-05-25T03:55:47;9.68;;;4.47;;
22754;SDS011;11544;42.020;23.094;2023-05-25T03:58:17;8.00;;;4.65;;
22754;SDS011;11544;42.020;23.094;2023-05-25T04:00:44;9.70;;;5.70;;
22754;SDS011;11544;42.020;23.094;2023-05-25T04:03:17;7.88;;;4.50;;
22754;SDS011;11544;42.020;23.094;2023-05-25T04:05:50;5.53;;;4.68;;
22754;SDS011;11544;42.020;23.094;2023-05-25T04:08:18;6.10;;;4.60;;
22754;SDS011;11544;42.020;23.094;2023-05-25T04:10:45;12.18;;;4.95;;
22754;SDS011;11544;42.020;23.094;2023-05-25T04:13:12;5.45;;;4.82;;
22754;SDS011;11544;42.020;23.094;2023-05-25T04:15:39;7.32;;;4.70;;
22754;SDS011;11544;42.020;23.094;2023-05-25T04:18:07;6.93;;;4.93;;
22754;SDS011;11544;42.020;23.094;2023-05-25T04:20:34;5.70;;;4.93;;
22754;SDS011;11544;42.020;23.094;2023-05-25T04:23:01;6.93;;;4.10;;
22754;SDS011;11544;42.020;23.094;2023-05-25T04:25:28;4.78;;;4.20;;
22754;SDS011;11544;42.020;23.094;2023-05-25T04:27:57;9.55;;;4.22;;
22754;SDS011;11544;42.020;23.094;2023-05-25T04:30:25;5.35;;;4.57;;
22754;SDS011;11544;42.020;23.094;2023-05-25T04:32:51;4.90;;;3.80;;
22754;SDS011;11544;42.020;23.094;2023-05-25T04:35:20;7.88;;;4.43;;
22754;SDS011;11544;42.020;23.094;2023-05-25T04:37:47;8.10;;;4.95;;
22754;SDS011;11544;42.020;23.094;2023-05-25T04:40:14;5.20;;;3.78;;
22754;SDS011;11544;42.020;23.094;2023-05-25T04:42:41;4.70;;;3.97;;
22754;SDS011;11544;42.020;23.094;2023-05-25T04:45:19;9.35;;;4.72;;
22754;SDS011;11544;42.020;23.094;2023-05-25T04:47:46;9.27;;;5.20;;
22754;SDS011;11544;42.020;23.094;2023-05-25T04:50:15;7.20;;;5.22;;
22754;SDS011;11544;42.020;23.094;2023-05-25T04:52:42;9.40;;;6.03;;
22754;SDS011;11544;42.020;23.094;2023-05-25T04:55:11;10.73;;;6.38;;
22754;SDS011;11544;42.020;23.094;2023-05-25T04:57:44;11.80;;;6.55;;
22754;SDS011;11544;42.020;23.094;2023-05-25T05:00:13;10.75;;;7.40;;
22754;SDS011;11544;42.020;23.094;2023-05-25T05:02:41;9.15;;;6.15;;
22754;SDS011;11544;42.020;23.094;2023-05-25T05:05:12;8.93;;;6.50;;
22754;SDS011;11544;42.020;23.094;2023-05-25T05:07:39;10.07;;;6.40;;
22754;SDS011;11544;42.020;23.094;2023-05-25T05:10:06;6.80;;;5.70;;
22754;SDS011;11544;42.020;23.094;2023-05-25T05:12:34;10.20;;;7.13;;
22754;SDS011;11544;42.020;23.094;2023-05-25T05:15:01;11.10;;;6.88;;
22754;SDS011;11544;42.020;23.094;2023-05-25T05:17:28;12.68;;;6.78;;
22754;SDS011;11544;42.020;23.094;2023-05-25T05:19:56;10.40;;;6.53;;
22754;SDS011;11544;42.020;23.094;2023-05-25T05:22:23;10.50;;;6.63;;
22754;SDS011;11544;42.020;23.094;2023-05-25T05:24:50;11.10;;;6.95;;
22754;SDS011;11544;42.020;23.094;2023-05-25T05:27:17;9.63;;;6.60;;
22754;SDS011;11544;42.020;23.094;2023-05-25T05:29:44;9.35;;;6.63;;
22754;SDS011;11544;42.020;23.094;2023-05-25T05:32:12;13.65;;;6.72;;
22754;SDS011;11544;42.020;23.094;2023-05-25T05:34:45;9.27;;;6.60;;
22754;SDS011;11544;42.020;23.094;2023-05-25T05:37:17;9.73;;;5.85;;
22754;SDS011;11544;42.020;23.094;2023-05-25T05:39:44;10.52;;;5.90;;
22754;SDS011;11544;42.020;23.094;2023-05-25T05:42:14;9.73;;;5.85;;
22754;SDS011;11544;42.020;23.094;2023-05-25T05:44:44;14.35;;;6.15;;
22754;SDS011;11544;42.020;23.094;2023-05-25T05:47:13;7.47;;;6.43;;
22754;SDS011;11544;42.020;23.094;2023-05-25T05:49:40;12.38;;;6.53;;
22754;SDS011;11544;42.020;23.094;2023-05-25T05:52:07;9.05;;;6.90;;
22754;SDS011;11544;42.020;23.094;2023-05-25T05:54:35;7.00;;;5.70;;
22754;SDS011;11544;42.020;23.094;2023-05-25T05:57:05;12.52;;;6.32;;
22754;SDS011;11544;42.020;23.094;2023-05-25T05:59:32;10.13;;;6.20;;
22754;SDS011;11544;42.020;23.094;2023-05-25T06:02:00;10.32;;;7.10;;
22754;SDS011;11544;42.020;23.094;2023-05-25T06:04:29;9.00;;;6.55;;
22754;SDS011;11544;42.020;23.094;2023-05-25T06:06:56;12.07;;;6.47;;
22754;SDS011;11544;42.020;23.094;2023-05-25T06:09:24;10.57;;;6.72;;
22754;SDS011;11544;42.020;23.094;2023-05-25T06:11:53;10.27;;;6.60;;
22754;SDS011;11544;42.020;23.094;2023-05-25T06:14:20;10.13;;;6.35;;
22754;SDS011;11544;42.020;23.094;2023-05-25T06:16:47;9.98;;;6.18;;
22754;SDS011;11544;42.020;23.094;2023-05-25T06:19:14;10.30;;;6.03;;
22754;SDS011;11544;42.020;23.094;2023-05-25T06:21:41;11.50;;;6.13;;
22754;SDS011;11544;42.020;23.094;2023-05-25T06:24:08;11.13;;;5.88;;
22754;SDS011;11544;42.020;23.094;2023-05-25T06:26:36;7.72;;;6.22;;
22754;SDS011;11544;42.020;23.094;2023-05-25T06:29:04;15.55;;;7.47;;
22754;SDS011;11544;42.020;23.094;2023-05-25T06:31:30;11.70;;;6.47;;
22754;SDS011;11544;42.020;23.094;2023-05-25T06:33:58;9.23;;;6.65;;
22754;SDS011;11544;42.020;23.094;2023-05-25T06:36:25;11.30;;;6.90;;
22754;SDS011;11544;42.020;23.094;2023-05-25T06:38:52;8.50;;;7.10;;
22754;SDS011;11544;42.020;23.094;2023-05-25T06:41:19;9.05;;;6.70;;
22754;SDS011;11544;42.020;23.094;2023-05-25T06:43:46;12.15;;;6.95;;
22754;SDS011;11544;42.020;23.094;2023-05-25T06:46:13;7.70;;;6.63;;
22754;SDS011;11544;42.020;23.094;2023-05-25T06:48:43;11.05;;;7.20;;
22754;SDS011;11544;42.020;23.094;2023-05-25T06:51:11;12.20;;;6.90;;
22754;SDS011;11544;42.020;23.094;2023-05-25T06:53:39;12.00;;;7.57;;
22754;SDS011;11544;42.020;23.094;2023-05-25T06:56:06;9.60;;;6.80;;
22754;SDS011;11544;42.020;23.094;2023-05-25T06:58:33;9.48;;;7.53;;
22754;SDS011;11544;42.020;23.094;2023-05-25T07:01:00;8.73;;;6.78;;
22754;SDS011;11544;42.020;23.094;2023-05-25T07:03:33;11.55;;;7.10;;
22754;SDS011;11544;42.020;23.094;2023-05-25T07:06:04;9.07;;;6.85;;
22754;SDS011;11544;42.020;23.094;2023-05-25T07:08:31;10.73;;;7.13;;
22754;SDS011;11544;42.020;23.094;2023-05-25T07:10:58;8.85;;;6.80;;
22754;SDS011;11544;42.020;23.094;2023-05-25T07:13:26;15.75;;;7.78;;
22754;SDS011;11544;42.020;23.094;2023-05-25T07:15:53;9.38;;;6.78;;
22754;SDS011;11544;42.020;23.094;2023-05-25T07:18:20;13.43;;;6.78;;
22754;SDS011;11544;42.020;23.094;2023-05-25T07:20:47;9.40;;;6.25;;
22754;SDS011;11544;42.020;23.094;2023-05-25T07:23:14;9.00;;;6.68;;
22754;SDS011;11544;42.020;23.094;2023-05-25T07:25:41;10.43;;;7.35;;
22754;SDS011;11544;42.020;23.094;2023-05-25T07:28:08;16.17;;;7.60;;
22754;SDS011;11544;42.020;23.094;2023-05-25T07:30:35;10.43;;;6.78;;
22754;SDS011;11544;42.020;23.094;2023-05-25T07:33:04;11.48;;;6.75;;
22754;SDS011;11544;42.020;23.094;2023-05-25T07:35:31;11.85;;;7.80;;
22754;SDS011;11544;42.020;23.094;2023-05-25T07:38:02;12.23;;;7.07;;
22754;SDS011;11544;42.020;23.094;2023-05-25T07:40:32;13.05;;;7.63;;
22754;SDS011;11544;42.020;23.094;2023-05-25T07:42:59;10.05;;;6.80;;
22754;SDS011;11544;42.020;23.094;2023-05-25T07:45:26;10.15;;;6.50;;
22754;SDS011;11544;42.020;23.094;2023-05-25T07:47:53;14.73;;;7.57;;
22754;SDS011;11544;42.020;23.094;2023-05-25T07:50:20;15.00;;;6.80;;
22754;SDS011;11544;42.020;23.094;2023-05-25T07:52:47;10.60;;;6.32;;
22754;SDS011;11544;42.020;23.094;2023-05-25T07:55:14;9.88;;;6.60;;
22754;SDS011;11544;42.020;23.094;2023-05-25T07:57:41;9.77;;;6.75;;
22754;SDS011;11544;42.020;23.094;2023-05-25T08:00:08;13.32;;;7.13;;
22754;SDS011;11544;42.020;23.094;2023-05-25T08:02:36;12.27;;;6.68;;
22754;SDS011;11544;42.020;23.094;2023-05-25T08:05:12;15.52;;;6.88;;
22754;SDS011;11544;42.020;23.094;2023-05-25T08:07:40;15.23;;;6.90;;
22754;SDS011;11544;42.020;23.094;2023-05-25T08:10:08;12.82;;;6.05;;
22754;SDS011;11544;42.020;23.094;2023-05-25T08:12:36;10.98;;;6.78;;
22754;SDS011;11544;42.020;23.094;2023-05-25T08:15:15;17.98;;;7.13;;
22754;SDS011;11544;42.020;23.094;2023-05-25T08:17:43;18.85;;;6.70;;
22754;SDS011;11544;42.020;23.094;2023-05-25T08:20:11;16.08;;;6.78;;
22754;SDS011;11544;42.020;23.094;2023-05-25T08:22:39;26.05;;;7.00;;
22754;SDS011;11544;42.020;23.094;2023-05-25T08:25:06;16.30;;;6.95;;
22754;SDS011;11544;42.020;23.094;2023-05-25T08:27:34;14.93;;;6.93;;
22754;SDS011;11544;42.020;23.094;2023-05-25T08:30:02;13.43;;;6.13;;
22754;SDS011;11544;42.020;23.094;2023-05-25T08:32:31;15.10;;;6.43;;
22754;SDS011;11544;42.020;23.094;2023-05-25T08:34:58;17.30;;;7.10;;
22754;SDS011;11544;42.020;23.094;2023-05-25T08:37:25;14.07;;;6.68;;
22754;SDS011;11544;42.020;23.094;2023-05-25T08:39:52;15.85;;;7.05;;
22754;SDS011;11544;42.020;23.094;2023-05-25T08:42:19;18.25;;;7.20;;
22754;SDS011;11544;42.020;23.094;2023-05-25T08:44:46;17.17;;;6.50;;
22754;SDS011;11544;42.020;23.094;2023-05-25T08:47:13;11.98;;;6.00;;
22754;SDS011;11544;42.020;23.094;2023-05-25T08:49:43;15.27;;;5.22;;
22754;SDS011;11544;42.020;23.094;2023-05-25T08:52:12;12.10;;;5.15;;
22754;SDS011;11544;42.020;23.094;2023-05-25T08:54:43;19.38;;;5.72;;
22754;SDS011;11544;42.020;23.094;2023-05-25T08:57:19;11.95;;;5.72;;
22754;SDS011;11544;42.020;23.094;2023-05-25T08:59:50;13.10;;;6.28;;
22754;SDS011;11544;42.020;23.094;2023-05-25T09:02:49;9.90;;;5.28;;
22754;SDS011;11544;42.020;23.094;2023-05-25T09:05:35;11.27;;;4.82;;
22754;SDS011;11544;42.020;23.094;2023-05-25T09:08:06;9.15;;;4.53;;
22754;SDS011;11544;42.020;23.094;2023-05-25T09:10:35;9.80;;;5.10;;
22754;SDS011;11544;42.020;23.094;2023-05-25T09:13:10;8.10;;;4.72;;
22754;SDS011;11544;42.020;23.094;2023-05-25T09:15:48;12.48;;;5.18;;
22754;SDS011;11544;42.020;23.094;2023-05-25T09:18:16;10.13;;;5.05;;
22754;SDS011;11544;42.020;23.094;2023-05-25T09:20:43;7.30;;;4.70;;
22754;SDS011;11544;42.020;23.094;2023-05-25T09:23:13;8.70;;;4.88;;
22754;SDS011;11544;42.020;23.094;2023-05-25T09:25:41;5.18;;;4.07;;
22754;SDS011;11544;42.020;23.094;2023-05-25T09:28:09;5.57;;;4.35;;
22754;SDS011;11544;42.020;23.094;2023-05-25T09:30:39;9.90;;;5.32;;
22754;SDS011;11544;42.020;23.094;2023-05-25T09:33:13;5.72;;;4.93;;
22754;SDS011;11544;42.020;23.094;2023-05-25T09:35:44;7.32;;;4.65;;
22754;SDS011;11544;42.020;23.094;2023-05-25T09:38:12;5.85;;;5.03;;
22754;SDS011;11544;42.020;23.094;2023-05-25T09:40:41;9.13;;;4.57;;
22754;SDS011;11544;42.020;23.094;2023-05-25T09:43:10;9.93;;;5.57;;
22754;SDS011;11544;42.020;23.094;2023-05-25T09:45:47;10.35;;;4.93;;
22754;SDS011;11544;42.020;23.094;2023-05-25T09:48:15;8.23;;;5.30;;
22754;SDS011;11544;42.020;23.094;2023-05-25T09:50:43;10.05;;;4.38;;
22754;SDS011;11544;42.020;23.094;2023-05-25T09:53:14;5.63;;;4.20;;
22754;SDS011;11544;42.020;23.094;2023-05-25T09:55:41;9.68;;;4.63;;
22754;SDS011;11544;42.020;23.094;2023-05-25T09:58:18;6.95;;;4.40;;
22754;SDS011;11544;42.020;23.094;2023-05-25T10:00:51;7.10;;;4.13;;
22754;SDS011;11544;42.020;23.094;2023-05-25T10:03:20;10.15;;;5.50;;
22754;SDS011;11544;42.020;23.094;2023-05-25T10:05:47;6.32;;;4.05;;
22754;SDS011;11544;42.020;23.094;2023-05-25T10:08:15;9.57;;;4.65;;
22754;SDS011;11544;42.020;23.094;2023-05-25T10:10:45;7.07;;;3.40;;
22754;SDS011;11544;42.020;23.094;2023-05-25T10:13:17;6.03;;;3.65;;
22754;SDS011;11544;42.020;23.094;2023-05-25T10:15:48;6.60;;;3.10;;
22754;SDS011;11544;42.020;23.094;2023-05-25T10:18:23;5.60;;;3.47;;
22754;SDS011;11544;42.020;23.094;2023-05-25T10:20:54;6.10;;;3.55;;
22754;SDS011;11544;42.020;23.094;2023-05-25T10:23:33;4.63;;;3.25;;
22754;SDS011;11544;42.020;23.094;2023-05-25T10:26:03;8.98;;;2.90;;
22754;SDS011;11544;42.020;23.094;2023-05-25T10:28:34;4.93;;;2.95;;
22754;SDS011;11544;42.020;23.094;2023-05-25T10:31:16;7.32;;;3.63;;
22754;SDS011;11544;42.020;23.094;2023-05-25T10:33:44;3.33;;;3.03;;
22754;SDS011;11544;42.020;23.094;2023-05-25T10:36:17;5.38;;;3.50;;
22754;SDS011;11544;42.020;23.094;2023-05-25T10:38:46;6.30;;;2.97;;
22754;SDS011;11544;42.020;23.094;2023-05-25T10:41:18;3.60;;;3.30;;
22754;SDS011;11544;42.020;23.094;2023-05-25T10:43:46;4.13;;;3.10;;
22754;SDS011;11544;42.020;23.094;2023-05-25T10:46:14;5.63;;;3.55;;
22754;SDS011;11544;42.020;23.094;2023-05-25T10:48:46;6.05;;;3.15;;
22754;SDS011;11544;42.020;23.094;2023-05-25T10:51:18;6.95;;;3.85;;
22754;SDS011;11544;42.020;23.094;2023-05-25T10:53:46;5.55;;;3.85;;
22754;SDS011;11544;42.020;23.094;2023-05-25T10:56:28;7.88;;;3.38;;
22754;SDS011;11544;42.020;23.094;2023-05-25T11:01:24;3.23;;;2.93;;
22754;SDS011;11544;42.020;23.094;2023-05-25T11:04:15;5.00;;;3.13;;
22754;SDS011;11544;42.020;23.094;2023-05-25T11:07:04;5.72;;;3.85;;
22754;SDS011;11544;42.020;23.094;2023-05-25T11:10:01;4.18;;;2.72;;
22754;SDS011;11544;42.020;23.094;2023-05-25T11:13:01;3.60;;;2.85;;
22754;SDS011;11544;42.020;23.094;2023-05-25T11:16:21;2.92;;;2.50;;
22754;SDS011;11544;42.020;23.094;2023-05-25T11:19:01;7.10;;;3.10;;
22754;SDS011;11544;42.020;23.094;2023-05-25T11:24:15;5.82;;;3.22;;
22754;SDS011;11544;42.020;23.094;2023-05-25T11:26:54;5.80;;;3.28;;
22754;SDS011;11544;42.020;23.094;2023-05-25T11:29:22;8.40;;;3.90;;
22754;SDS011;11544;42.020;23.094;2023-05-25T11:31:57;7.90;;;3.40;;
22754;SDS011;11544;42.020;23.094;2023-05-25T11:34:32;7.68;;;3.03;;
22754;SDS011;11544;42.020;23.094;2023-05-25T11:37:02;5.68;;;3.35;;
22754;SDS011;11544;42.020;23.094;2023-05-25T11:39:30;4.35;;;3.30;;
22754;SDS011;11544;42.020;23.094;2023-05-25T11:42:03;4.30;;;3.35;;
22754;SDS011;11544;42.020;23.094;2023-05-25T11:45:00;6.65;;;3.53;;
22754;SDS011;11544;42.020;23.094;2023-05-25T11:47:29;8.60;;;3.80;;
22754;SDS011;11544;42.020;23.094;2023-05-25T11:49:58;4.65;;;3.08;;
22754;SDS011;11544;42.020;23.094;2023-05-25T11:52:34;6.25;;;3.13;;
22754;SDS011;11544;42.020;23.094;2023-05-25T11:55:13;4.20;;;3.05;;
22754;SDS011;11544;42.020;23.094;2023-05-25T11:57:53;3.25;;;2.50;;
22754;SDS011;11544;42.020;23.094;2023-05-25T12:00:30;3.10;;;2.80;;
22754;SDS011;11544;42.020;23.094;2023-05-25T12:02:58;6.72;;;3.22;;
22754;SDS011;11544;42.020;23.094;2023-05-25T12:05:35;4.47;;;3.00;;
22754;SDS011;11544;42.020;23.094;2023-05-25T12:08:05;4.65;;;2.97;;
22754;SDS011;11544;42.020;23.094;2023-05-25T12:10:33;4.75;;;2.90;;
22754;SDS011;11544;42.020;23.094;2023-05-25T12:13:15;7.82;;;2.63;;
22754;SDS011;11544;42.020;23.094;2023-05-25T12:15:42;2.72;;;2.40;;
22754;SDS011;11544;42.020;23.094;2023-05-25T12:18:14;3.13;;;2.60;;
22754;SDS011;11544;42.020;23.094;2023-05-25T12:20:50;2.78;;;2.30;;
22754;SDS011;11544;42.020;23.094;2023-05-25T12:23:20;7.82;;;2.78;;
22754;SDS011;11544;42.020;23.094;2023-05-25T12:25:48;3.35;;;2.15;;
22754;SDS011;11544;42.020;23.094;2023-05-25T12:28:18;3.42;;;2.50;;
22754;SDS011;11544;42.020;23.094;2023-05-25T12:30:45;3.92;;;2.30;;
22754;SDS011;11544;42.020;23.094;2023-05-25T12:33:15;3.72;;;3.25;;
22754;SDS011;11544;42.020;23.094;2023-05-25T12:35:46;4.15;;;2.60;;
22754;SDS011;11544;42.020;23.094;2023-05-25T12:38:18;3.72;;;2.78;;
22754;SDS011;11544;42.020;23.094;2023-05-25T12:41:05;3.03;;;2.22;;
22754;SDS011;11544;42.020;23.094;2023-05-25T12:43:36;3.10;;;2.35;;
22754;SDS011;11544;42.020;23.094;2023-05-25T12:46:22;3.10;;;1.83;;
22754;SDS011;11544;42.020;23.094;2023-05-25T12:48:53;5.43;;;2.55;;
22754;SDS011;11544;42.020;23.094;2023-05-25T12:51:20;4.43;;;2.30;;
22754;SDS011;11544;42.020;23.094;2023-05-25T12:54:04;4.57;;;2.35;;
22754;SDS011;11544;42.020;23.094;2023-05-25T12:56:31;2.63;;;2.10;;
22754;SDS011;11544;42.020;23.094;2023-05-25T12:59:12;2.67;;;2.10;;
22754;SDS011;11544;42.020;23.094;2023-05-25T13:01:45;4.15;;;2.30;;
22754;SDS011;11544;42.020;23.094;2023-05-25T13:04:11;4.57;;;2.30;;
22754;SDS011;11544;42.020;23.094;2023-05-25T13:06:39;4.03;;;2.28;;
22754;SDS011;11544;42.020;23.094;2023-05-25T13:09:06;2.13;;;1.92;;
22754;SDS011;11544;42.020;23.094;2023-05-25T13:11:38;2.22;;;1.88;;
22754;SDS011;11544;42.020;23.094;2023-05-25T13:14:05;2.30;;;2.10;;
22754;SDS011;11544;42.020;23.094;2023-05-25T13:16:32;3.17;;;2.28;;
22754;SDS011;11544;42.020;23.094;2023-05-25T13:19:00;3.95;;;2.75;;
22754;SDS011;11544;42.020;23.094;2023-05-25T13:21:28;4.95;;;2.47;;
22754;SDS011;11544;42.020;23.094;2023-05-25T13:24:00;2.83;;;2.55;;
22754;SDS011;11544;42.020;23.094;2023-05-25T13:26:30;3.97;;;2.92;;
22754;SDS011;11544;42.020;23.094;2023-05-25T13:28:58;2.90;;;2.60;;
22754;SDS011;11544;42.020;23.094;2023-05-25T13:31:36;5.55;;;2.88;;
22754;SDS011;11544;42.020;23.094;2023-05-25T13:34:03;5.97;;;2.67;;
22754;SDS011;11544;42.020;23.094;2023-05-25T13:36:31;4.07;;;2.53;;
22754;SDS011;11544;42.020;23.094;2023-05-25T13:39:00;11.05;;;3.10;;
22754;SDS011;11544;42.020;23.094;2023-05-25T13:41:30;5.68;;;3.47;;
22754;SDS011;11544;42.020;23.094;2023-05-25T13:44:02;6.15;;;3.47;;
22754;SDS011;11544;42.020;23.094;2023-05-25T13:46:33;4.72;;;2.55;;
22754;SDS011;11544;42.020;23.094;2023-05-25T13:49:03;5.93;;;2.80;;
22754;SDS011;11544;42.020;23.094;2023-05-25T13:51:32;3.08;;;2.70;;
22754;SDS011;11544;42.020;23.094;2023-05-25T13:54:01;3.58;;;2.58;;
22754;SDS011;11544;42.020;23.094;2023-05-25T13:56:30;5.03;;;3.00;;
22754;SDS011;11544;42.020;23.094;2023-05-25T13:59:03;3.22;;;2.53;;
22754;SDS011;11544;42.020;23.094;2023-05-25T14:01:30;7.68;;;3.55;;
22754;SDS011;11544;42.020;23.094;2023-05-25T14:03:58;3.33;;;2.72;;
22754;SDS011;11544;42.020;23.094;2023-05-25T14:06:26;7.30;;;3.20;;
22754;SDS011;11544;42.020;23.094;2023-05-25T14:08:55;5.82;;;3.90;;
22754;SDS011;11544;42.020;23.094;2023-05-25T14:11:21;3.78;;;2.90;;
22754;SDS011;11544;42.020;23.094;2023-05-25T14:13:54;3.70;;;3.03;;
22754;SDS011;11544;42.020;23.094;2023-05-25T14:16:21;3.58;;;2.88;;
22754;SDS011;11544;42.020;23.094;2023-05-25T14:18:48;5.00;;;3.28;;
22754;SDS011;11544;42.020;23.094;2023-05-25T14:21:15;5.97;;;4.03;;
22754;SDS011;11544;42.020;23.094;2023-05-25T14:23:42;5.78;;;3.10;;
22754;SDS011;11544;42.020;23.094;2023-05-25T14:26:30;3.05;;;2.70;;
22754;SDS011;11544;42.020;23.094;2023-05-25T14:29:07;2.60;;;2.28;;
22754;SDS011;11544;42.020;23.094;2023-05-25T14:31:37;2.60;;;2.40;;
22754;SDS011;11544;42.020;23.094;2023-05-25T14:34:07;5.72;;;2.45;;
22754;SDS011;11544;42.020;23.094;2023-05-25T14:36:34;3.80;;;2.20;;
22754;SDS011;11544;42.020;23.094;2023-05-25T14:39:03;3.03;;;2.38;;
22754;SDS011;11544;42.020;23.094;2023-05-25T14:41:30;3.30;;;2.65;;
22754;SDS011;11544;42.020;23.094;2023-05-25T14:43:57;3.53;;;2.47;;
22754;SDS011;11544;42.020;23.094;2023-05-25T14:46:33;3.25;;;2.95;;
22754;SDS011;11544;42.020;23.094;2023-05-25T14:49:06;2.53;;;2.10;;
22754;SDS011;11544;42.020;23.094;2023-05-25T14:51:54;5.82;;;2.40;;
22754;SDS011;11544;42.020;23.094;2023-05-25T14:54:30;3.60;;;2.58;;
22754;SDS011;11544;42.020;23.094;2023-05-25T14:56:57;3.05;;;2.17;;
22754;SDS011;11544;42.020;23.094;2023-05-25T14:59:25;2.67;;;2.40;;